createdAt,value
2018-09-05T00:01:14.781Z,101372.19
2018-09-05T00:03:43.191Z,101377.45
2018-09-05T00:06:11.414Z,101378.32
2018-09-05T00:08:39.640Z,101375.69
2018-09-05T00:11:07.845Z,101373.75
2018-09-05T00:13:36.001Z,101370.88
2018-09-05T00:16:04.131Z,101373.28
2018-09-05T00:18:32.989Z,101365.77
2018-09-05T00:21:01.123Z,101366.01
2018-09-05T00:23:29.254Z,101363.09
2018-09-05T00:25:57.411Z,101362.73
2018-09-05T00:28:25.667Z,101357.69
2018-09-05T00:30:53.783Z,101358.01
2018-09-05T00:33:22.175Z,101354.98
2018-09-05T00:35:50.554Z,101358.67
2018-09-05T00:38:18.745Z,101359.60
2018-09-05T00:40:46.899Z,101365.49
2018-09-05T00:43:15.033Z,101363.23
2018-09-05T00:45:43.210Z,101362.94
2018-09-05T00:48:11.415Z,101369.11
2018-09-05T00:50:39.539Z,101365.85
2018-09-05T00:53:07.669Z,101360.28
2018-09-05T00:55:35.794Z,101361.52
2018-09-05T00:58:03.952Z,101364.66
2018-09-05T01:00:32.049Z,101365.05
2018-09-05T01:03:00.453Z,101366.41
2018-09-05T01:05:28.551Z,101371.50
2018-09-05T01:07:56.693Z,101373.00
2018-09-05T01:10:31.746Z,101369.23
2018-09-05T01:12:59.885Z,101368.80
2018-09-05T01:15:28.037Z,101364.86
2018-09-05T01:17:56.352Z,101373.00
2018-09-05T01:20:24.584Z,101365.76
2018-09-05T01:22:52.833Z,101365.84
2018-09-05T01:25:21.017Z,101369.70
2018-09-05T01:27:49.213Z,101368.38
2018-09-05T01:30:17.329Z,101365.01
2018-09-05T01:32:45.477Z,101371.63
2018-09-05T01:35:13.657Z,101375.95
2018-09-05T01:37:42.357Z,101377.52
2018-09-05T01:40:10.574Z,101371.01
2018-09-05T01:42:38.826Z,101374.25
2018-09-05T01:45:07.067Z,101374.52
2018-09-05T01:47:35.245Z,101376.61
2018-09-05T01:50:03.585Z,101382.52
2018-09-05T01:52:31.800Z,101381.08
2018-09-05T01:54:59.997Z,101382.25
2018-09-05T01:57:28.185Z,101385.36
2018-09-05T01:59:56.377Z,101380.45
2018-09-05T02:02:25.653Z,101383.61
2018-09-05T02:04:54.513Z,101379.37
2018-09-05T02:07:22.807Z,101380.28
2018-09-05T02:09:50.959Z,101381.77
2018-09-05T02:12:19.103Z,101378.36
2018-09-05T02:14:47.229Z,101369.95
2018-09-05T02:17:15.385Z,101376.17
2018-09-05T02:19:43.556Z,101377.55
2018-09-05T02:22:11.726Z,101374.94
2018-09-05T02:24:39.985Z,101374.15
2018-09-05T02:27:08.521Z,101368.55
2018-09-05T02:29:36.657Z,101384.84
2018-09-05T02:32:04.890Z,101379.78
2018-09-05T02:34:33.015Z,101395.47
2018-09-05T02:37:01.216Z,101383.77
2018-09-05T02:39:29.459Z,101391.49
2018-09-05T02:41:57.794Z,101390.86
2018-09-05T02:44:26.010Z,101393.77
2018-09-05T02:46:54.205Z,101393.58
2018-09-05T02:49:22.432Z,101390.80
2018-09-05T02:51:50.659Z,101391.59
2018-09-05T02:54:18.938Z,101387.74
2018-09-05T02:56:47.207Z,101386.30
2018-09-05T02:59:15.367Z,101393.05
2018-09-05T03:01:43.540Z,101388.13
2018-09-05T03:04:11.918Z,101399.36
2018-09-05T03:06:40.095Z,101400.72
2018-09-05T03:09:08.874Z,101401.78
2018-09-05T03:11:37.160Z,101408.64
2018-09-05T03:14:06.160Z,101411.26
2018-09-05T03:16:34.296Z,101405.33
2018-09-05T03:19:04.108Z,101407.95
2018-09-05T03:21:30.722Z,101412.17
2018-09-05T03:23:58.871Z,101408.94
2018-09-05T03:26:27.122Z,101404.13
2018-09-05T03:28:55.270Z,101409.36
2018-09-05T03:31:23.439Z,101404.17
2018-09-05T03:33:51.882Z,101409.23
2018-09-05T03:36:20.021Z,101407.53
2018-09-05T03:38:48.385Z,101408.59
2018-09-05T03:41:16.517Z,101407.14
2018-09-05T03:43:44.676Z,101404.99
2018-09-05T03:46:12.846Z,101409.80
2018-09-05T03:48:41.003Z,101411.02
2018-09-05T03:51:09.133Z,101413.64
2018-09-05T03:53:37.309Z,101419.42
2018-09-05T03:56:05.527Z,101412.56
2018-09-05T03:58:33.734Z,101419.17
2018-09-05T04:01:01.875Z,101416.55
2018-09-05T04:03:30.136Z,101410.09
2018-09-05T04:05:58.254Z,101413.88
2018-09-05T04:08:26.494Z,101417.47
2018-09-05T04:10:54.677Z,101417.37
2018-09-05T04:13:22.843Z,101421.79
2018-09-05T04:15:51.229Z,101417.86
2018-09-05T04:18:19.532Z,101421.41
2018-09-05T04:20:47.664Z,101419.57
2018-09-05T04:23:18.888Z,101416.33
2018-09-05T04:25:47.045Z,101419.60
2018-09-05T04:28:15.399Z,101425.60
2018-09-05T04:30:43.570Z,101413.53
2018-09-05T04:33:11.924Z,101418.47
2018-09-05T04:35:40.244Z,101421.75
2018-09-05T04:38:08.467Z,101425.69
2018-09-05T04:40:36.614Z,101427.23
2018-09-05T04:43:04.828Z,101427.53
2018-09-05T04:45:33.149Z,101433.87
2018-09-05T04:48:01.400Z,101434.58
2018-09-05T04:50:29.575Z,101430.73
2018-09-05T04:52:57.729Z,101435.23
2018-09-05T04:55:25.997Z,101433.27
2018-09-05T04:57:54.211Z,101438.77
2018-09-05T05:00:22.435Z,101438.23
2018-09-05T05:02:50.698Z,101437.29
2018-09-05T05:05:18.937Z,101447.57
2018-09-05T05:07:47.256Z,101447.09
2018-09-05T05:10:15.433Z,101454.63
2018-09-05T05:12:43.653Z,101450.55
2018-09-05T05:15:16.067Z,101454.80
2018-09-05T05:17:44.217Z,101460.97
2018-09-05T05:20:12.507Z,101464.59
2018-09-05T05:22:40.707Z,101468.53
2018-09-05T05:25:09.023Z,101475.02
2018-09-05T05:27:37.467Z,101470.63
2018-09-05T05:30:06.199Z,101468.97
2018-09-05T05:32:34.787Z,101471.68
2018-09-05T05:35:07.123Z,101468.09
2018-09-05T05:37:35.401Z,101464.51
2018-09-05T05:40:06.158Z,101463.55
2018-09-05T05:42:35.229Z,101472.52
2018-09-05T05:45:04.364Z,101469.53
2018-09-05T05:47:33.362Z,101472.04
2018-09-05T05:50:02.189Z,101471.20
2018-09-05T05:52:30.819Z,101472.69
2018-09-05T05:54:59.509Z,101477.45
2018-09-05T05:57:27.791Z,101483.05
2018-09-05T05:59:56.732Z,101483.59
2018-09-05T06:02:25.296Z,101481.96
2018-09-05T06:04:53.590Z,101485.55
2018-09-05T06:07:21.863Z,101481.38
2018-09-05T06:09:50.078Z,101487.59
2018-09-05T06:12:18.345Z,101481.45
2018-09-05T06:14:46.540Z,101482.59
2018-09-05T06:17:14.839Z,101487.59
2018-09-05T06:19:42.999Z,101486.94
2018-09-05T06:22:11.253Z,101489.41
2018-09-05T06:24:40.312Z,101494.81
2018-09-05T06:27:08.785Z,101499.31
2018-09-05T06:29:36.955Z,101495.77
2018-09-05T06:32:05.274Z,101504.05
2018-09-05T06:34:33.558Z,101494.15
2018-09-05T06:37:01.843Z,101498.75
2018-09-05T06:39:30.426Z,101495.98
2018-09-05T06:41:58.654Z,101502.29
2018-09-05T06:44:26.893Z,101502.80
2018-09-05T06:46:55.107Z,101503.94
2018-09-05T06:49:23.427Z,101493.55
2018-09-05T06:51:51.713Z,101505.48
2018-09-05T06:54:19.831Z,101502.17
2018-09-05T06:56:48.065Z,101502.91
2018-09-05T06:59:16.505Z,101500.66
2018-09-05T07:01:44.731Z,101504.34
2018-09-05T07:04:13.309Z,101501.13
2018-09-05T07:06:42.013Z,101501.24
2018-09-05T07:09:12.473Z,101506.57
2018-09-05T07:11:41.245Z,101506.78
2018-09-05T07:14:09.594Z,101506.52
2018-09-05T07:16:38.576Z,101502.88
2018-09-05T07:19:08.325Z,101511.24
2018-09-05T07:21:36.824Z,101502.44
2018-09-05T07:24:05.159Z,101505.10
2018-09-05T07:26:33.635Z,101508.03
2018-09-05T07:29:02.021Z,101498.73
2018-09-05T07:31:30.613Z,101498.88
2018-09-05T07:33:58.994Z,101499.20
2018-09-05T07:36:27.243Z,101503.57
2018-09-05T07:38:55.436Z,101497.92
2018-09-05T07:41:23.649Z,101501.17
2018-09-05T07:43:52.111Z,101505.32
2018-09-05T07:46:20.382Z,101495.82
2018-09-05T07:48:48.638Z,101502.22
2018-09-05T07:51:17.625Z,101504.59
2018-09-05T07:53:45.938Z,101503.34
2018-09-05T07:56:14.057Z,101506.65
2018-09-05T07:58:49.027Z,101508.52
2018-09-05T08:01:17.238Z,101508.52
2018-09-05T08:03:45.339Z,101509.58
2018-09-05T08:06:13.806Z,101502.13
2018-09-05T08:08:42.003Z,101506.17
2018-09-05T08:11:10.274Z,101501.00
2018-09-05T08:13:38.460Z,101502.34
2018-09-05T08:16:07.286Z,101499.99
2018-09-05T08:18:35.674Z,101501.48
2018-09-05T08:21:03.872Z,101499.84
2018-09-05T08:23:32.097Z,101496.94
2018-09-05T08:26:00.333Z,101494.86
2018-09-05T08:28:28.607Z,101500.81
2018-09-05T08:30:56.837Z,101501.75
2018-09-05T08:33:25.064Z,101497.83
2018-09-05T08:35:53.752Z,101498.81
2018-09-05T08:38:21.917Z,101497.50
2018-09-05T08:40:51.013Z,101493.15
2018-09-05T08:43:19.260Z,101496.72
2018-09-05T08:45:47.671Z,101492.72
2018-09-05T08:48:15.936Z,101491.02
2018-09-05T08:50:44.066Z,101492.34
2018-09-05T08:53:12.968Z,101482.70
2018-09-05T08:55:41.774Z,101489.30
2018-09-05T08:58:16.775Z,101488.89
2018-09-05T09:00:45.638Z,101487.60
2018-09-05T09:03:15.633Z,101486.30
2018-09-05T09:05:43.887Z,101478.84
2018-09-05T09:08:12.475Z,101480.19
2018-09-05T09:10:41.002Z,101480.17
2018-09-05T09:13:09.985Z,101483.28
2018-09-05T09:15:38.229Z,101480.20
2018-09-05T09:18:06.771Z,101488.58
2018-09-05T09:20:35.077Z,101488.14
2018-09-05T09:23:03.373Z,101484.16
2018-09-05T09:25:31.745Z,101489.89
2018-09-05T09:27:59.964Z,101492.09
2018-09-05T09:30:28.395Z,101491.21
2018-09-05T09:32:56.575Z,101493.41
2018-09-05T09:35:24.734Z,101485.89
2018-09-05T09:37:53.035Z,101484.55
2018-09-05T09:40:21.324Z,101483.69
2018-09-05T09:42:49.531Z,101480.13
2018-09-05T09:45:17.659Z,101472.96
2018-09-05T09:47:45.807Z,101473.32
2018-09-05T09:50:13.998Z,101470.66
2018-09-05T09:52:42.129Z,101465.91
2018-09-05T09:55:10.295Z,101461.48
2018-09-05T09:57:38.826Z,101463.59
2018-09-05T10:00:07.706Z,101454.34
2018-09-05T10:02:41.068Z,101459.14
2018-09-05T10:05:14.604Z,101451.55
2018-09-05T10:07:56.759Z,101446.05
2018-09-05T10:10:30.310Z,101441.19
2018-09-05T10:13:03.871Z,101445.34
2018-09-05T10:15:37.379Z,101442.52
2018-09-05T10:18:11.209Z,101442.48
2018-09-05T10:20:40.901Z,101444.98
2018-09-05T10:23:09.157Z,101436.97
2018-09-05T10:25:37.409Z,101442.23
2018-09-05T10:28:05.876Z,101442.94
2018-09-05T10:30:34.325Z,101433.59
2018-09-05T10:33:02.665Z,101440.05
2018-09-05T10:35:30.846Z,101438.77
2018-09-05T10:37:59.215Z,111965.59
2018-09-05T10:40:27.381Z,111965.59
2018-09-05T15:10:51.137Z,101293.61
2018-09-05T15:13:19.311Z,101299.78
2018-09-05T15:15:47.735Z,111965.59
2018-09-05T15:20:43.253Z,111965.59
